Rome, Italy
Current Conditions -  °F | °C
As of 1:15 AM on Sunday 21 Dec 2014 (Local Time) from LIRA Reporting Station
Clear Clear  
Wind Chill:   Ceiling: Unl
Heat Index:   Visibility: 4mi
Dew Point:   Wind: 2mph
Humidity: 93%   Direction: 60°ENE
Pressure: 30.18"   Gusts: NA
Location:  41.9°N, 12.48°E
Report Text: LIRA 210015Z 06002KT 7000 NSC 08/07 Q1022
Loading
Personal Weather Stations






























Interactive Weather Map New forecast layout! Learn more

10-Day Weather Forecast

Advertisements
Track Severe Weather on mobile